createdAt,value
2022-09-25T00:00:47.777Z,21.43
2022-09-25T00:03:15.514Z,23.10
2022-09-25T00:05:45.674Z,20.83
2022-09-25T00:08:13.838Z,21.93
2022-09-25T00:10:46.442Z,20.97
2022-09-25T00:13:13.970Z,21.03
2022-09-25T00:15:47.217Z,21.60
2022-09-25T00:18:13.910Z,20.63
2022-09-25T00:20:40.351Z,20.90
2022-09-25T00:23:07.084Z,20.20
2022-09-25T00:25:33.482Z,20.40
2022-09-25T00:27:59.965Z,21.23
2022-09-25T00:30:26.579Z,19.33
2022-09-25T00:32:53.017Z,20.23
2022-09-25T00:35:19.363Z,20.00
2022-09-25T00:37:45.823Z,21.77
2022-09-25T00:40:12.278Z,21.23
2022-09-25T00:42:38.881Z,23.77
2022-09-25T00:45:16.858Z,20.20
2022-09-25T00:48:02.891Z,20.80
2022-09-25T00:50:32.324Z,20.97
2022-09-25T00:53:11.168Z,21.67
2022-09-25T00:55:39.877Z,21.13
2022-09-25T00:58:06.916Z,21.37
2022-09-25T01:00:35.294Z,22.00
2022-09-25T01:03:02.957Z,21.80
2022-09-25T01:05:33.094Z,21.50
2022-09-25T01:08:03.200Z,20.40
2022-09-25T01:10:29.568Z,25.50
2022-09-25T01:12:57.962Z,21.60
2022-09-25T01:15:34.075Z,22.23
2022-09-25T01:18:11.733Z,22.33
2022-09-25T01:21:05.077Z,22.07
2022-09-25T01:24:03.401Z,21.73
2022-09-25T01:27:27.301Z,21.87
2022-09-25T01:30:02.954Z,21.17
2022-09-25T01:32:38.930Z,22.70
2022-09-25T01:35:40.833Z,20.60
2022-09-25T01:38:17.541Z,23.40
2022-09-25T01:40:53.717Z,22.43
2022-09-25T01:43:26.019Z,22.07
2022-09-25T01:46:00.015Z,24.23
2022-09-25T01:48:29.875Z,22.13
2022-09-25T01:51:01.631Z,22.47
2022-09-25T01:53:34.712Z,23.97
2022-09-25T01:56:33.837Z,23.87
2022-09-25T01:59:10.749Z,24.10
2022-09-25T02:01:41.803Z,25.43
2022-09-25T02:04:13.960Z,26.00
2022-09-25T02:06:46.738Z,26.63
2022-09-25T02:09:34.552Z,26.27
2022-09-25T02:12:10.121Z,24.97
2022-09-25T02:14:48.926Z,24.83
2022-09-25T02:17:45.055Z,25.97
2022-09-25T02:20:29.766Z,24.63
2022-09-25T02:23:05.513Z,25.87
2022-09-25T02:25:38.343Z,24.97
2022-09-25T02:28:04.795Z,26.03
2022-09-25T02:30:31.601Z,27.63
2022-09-25T02:32:58.136Z,25.60
2022-09-25T02:35:25.924Z,27.10
2022-09-25T02:37:56.251Z,24.83
2022-09-25T02:40:36.298Z,25.50
2022-09-25T02:43:18.896Z,26.83
2022-09-25T02:46:13.482Z,26.60
2022-09-25T02:48:59.267Z,28.30
2022-09-25T02:51:36.846Z,29.23
2022-09-25T02:54:06.212Z,25.87
2022-09-25T02:56:47.010Z,26.80
2022-09-25T02:59:35.746Z,26.63
2022-09-25T03:02:02.954Z,25.80
2022-09-25T03:04:32.194Z,25.07
2022-09-25T03:06:58.992Z,28.57
2022-09-25T03:09:26.934Z,24.70
2022-09-25T03:11:55.091Z,23.50
2022-09-25T03:14:21.607Z,26.67
2022-09-25T03:16:51.831Z,21.47
2022-09-25T03:19:19.846Z,23.40
2022-09-25T03:21:47.506Z,21.00
2022-09-25T03:24:15.178Z,18.57
2022-09-25T03:26:42.456Z,19.33
2022-09-25T03:29:09.367Z,16.67
2022-09-25T03:31:35.682Z,16.63
2022-09-25T03:34:02.073Z,18.20
2022-09-25T03:36:31.205Z,19.47
2022-09-25T03:38:59.068Z,16.07
2022-09-25T03:41:28.970Z,14.27
2022-09-25T03:43:56.579Z,13.40
2022-09-25T03:46:25.907Z,15.77
2022-09-25T03:48:53.452Z,16.50
2022-09-25T03:51:20.547Z,13.37
2022-09-25T03:53:47.769Z,17.80
2022-09-25T03:56:20.728Z,13.83
2022-09-25T03:58:48.488Z,15.37
2022-09-25T04:01:15.786Z,14.80
2022-09-25T04:03:45.578Z,17.03
2022-09-25T04:06:12.007Z,12.37
2022-09-25T04:08:38.485Z,16.53
2022-09-25T04:11:05.260Z,17.00
2022-09-25T04:13:42.067Z,14.13
2022-09-25T04:16:08.703Z,15.37
2022-09-25T04:18:35.698Z,12.87
2022-09-25T04:21:04.737Z,13.50
2022-09-25T04:23:31.770Z,14.47
2022-09-25T04:25:58.454Z,13.00
2022-09-25T04:28:25.694Z,13.23
2022-09-25T04:30:52.069Z,8.83
2022-09-25T04:33:37.532Z,9.07
2022-09-25T04:36:04.931Z,9.67
2022-09-25T04:38:32.396Z,11.00
2022-09-25T04:41:00.125Z,11.70
2022-09-25T04:43:29.569Z,9.53
2022-09-25T04:45:56.034Z,9.67
2022-09-25T04:48:22.497Z,13.00
2022-09-25T04:50:50.964Z,9.53
2022-09-25T04:53:18.214Z,10.10
2022-09-25T04:55:46.279Z,11.13
2022-09-25T04:58:12.797Z,8.60
2022-09-25T05:00:40.970Z,8.90
2022-09-25T05:03:07.390Z,7.33
2022-09-25T05:05:35.240Z,6.10
2022-09-25T05:08:02.423Z,11.53
2022-09-25T05:10:34.991Z,12.73
2022-09-25T05:13:03.941Z,8.93
2022-09-25T05:15:32.089Z,9.27
2022-09-25T05:18:07.149Z,9.80
2022-09-25T05:20:35.808Z,10.03
2022-09-25T05:23:04.142Z,9.00
2022-09-25T05:25:31.833Z,10.53
2022-09-25T05:27:59.647Z,5.73
2022-09-25T05:30:28.651Z,8.87
2022-09-25T05:32:58.228Z,9.20
2022-09-25T05:35:26.257Z,7.53
2022-09-25T05:37:52.807Z,10.00
2022-09-25T05:40:24.135Z,13.53
2022-09-25T05:42:51.914Z,9.73
2022-09-25T05:45:20.418Z,10.67
2022-09-25T05:47:47.183Z,12.73
2022-09-25T05:50:15.830Z,6.70
2022-09-25T05:52:42.186Z,9.10
2022-09-25T05:55:10.900Z,7.87
2022-09-25T05:57:38.182Z,9.27
2022-09-25T06:00:08.626Z,9.67
2022-09-25T06:02:35.420Z,8.27
2022-09-25T06:05:01.795Z,8.13
2022-09-25T06:07:28.303Z,10.40
2022-09-25T06:09:54.638Z,12.20
2022-09-25T06:12:23.075Z,10.27
2022-09-25T06:14:49.523Z,7.93
2022-09-25T06:17:15.995Z,10.40
2022-09-25T06:19:42.639Z,10.60
2022-09-25T06:22:08.996Z,7.90
2022-09-25T06:24:35.321Z,7.60
2022-09-25T06:27:01.806Z,7.53
2022-09-25T06:29:28.187Z,8.80
2022-09-25T06:31:54.490Z,8.07
2022-09-25T06:34:20.891Z,8.37
2022-09-25T06:36:47.187Z,6.93
2022-09-25T06:39:13.507Z,4.33
2022-09-25T06:41:41.169Z,8.13
2022-09-25T06:44:09.054Z,9.07
2022-09-25T06:46:36.608Z,10.67
2022-09-25T06:49:03.151Z,6.27
2022-09-25T06:51:34.814Z,5.23
2022-09-25T06:54:01.417Z,7.30
2022-09-25T06:56:27.744Z,8.40
2022-09-25T06:58:54.055Z,8.97
2022-09-25T07:01:20.486Z,10.47
2022-09-25T07:03:47.579Z,7.90
2022-09-25T07:06:23.081Z,8.47
2022-09-25T07:08:50.962Z,8.17
2022-09-25T07:11:20.198Z,9.77
2022-09-25T07:13:47.859Z,9.40
2022-09-25T07:16:17.267Z,6.37
2022-09-25T07:18:44.771Z,6.27
2022-09-25T07:21:19.436Z,6.03
2022-09-25T07:23:50.700Z,7.83
2022-09-25T07:26:26.194Z,8.67
2022-09-25T07:29:04.744Z,11.80
2022-09-25T07:31:34.005Z,12.33
2022-09-25T07:34:05.769Z,8.10
2022-09-25T07:36:32.540Z,9.70
2022-09-25T07:38:58.957Z,7.87
2022-09-25T07:41:25.323Z,7.17
2022-09-25T07:44:01.976Z,6.20
2022-09-25T07:46:43.468Z,8.87
2022-09-25T07:49:10.074Z,9.83
2022-09-25T07:51:36.402Z,7.60
2022-09-25T07:54:02.847Z,8.73
2022-09-25T07:56:29.261Z,8.63
2022-09-25T07:58:55.630Z,9.87
2022-09-25T08:01:22.066Z,9.80
2022-09-25T08:03:49.327Z,13.53
2022-09-25T08:06:15.845Z,8.43
2022-09-25T08:08:43.490Z,5.97
2022-09-25T08:11:17.037Z,8.03
2022-09-25T08:13:43.958Z,7.93
2022-09-25T08:16:13.841Z,4.93
2022-09-25T08:18:42.218Z,10.37
2022-09-25T08:21:10.061Z,9.43
2022-09-25T08:23:36.513Z,11.07
2022-09-25T08:26:03.411Z,10.70
2022-09-25T08:28:29.845Z,24.50
2022-09-25T08:30:58.984Z,13.73
2022-09-25T08:33:25.846Z,7.03
2022-09-25T08:35:57.612Z,10.40
2022-09-25T08:38:24.734Z,9.23
2022-09-25T08:40:56.748Z,11.70
2022-09-25T08:43:25.487Z,8.00
2022-09-25T08:46:12.394Z,8.27
2022-09-25T08:49:10.255Z,6.80
2022-09-25T08:51:43.105Z,8.33
2022-09-25T08:54:18.434Z,8.37
2022-09-25T08:56:45.147Z,6.10
2022-09-25T08:59:23.621Z,9.07
2022-09-25T09:01:55.791Z,11.40
2022-09-25T09:04:36.899Z,8.30
2022-09-25T09:07:29.424Z,6.13
2022-09-25T09:10:07.537Z,6.20
2022-09-25T09:12:43.853Z,9.47
2022-09-25T09:15:36.297Z,4.80
2022-09-25T09:18:16.819Z,5.37
2022-09-25T09:20:52.947Z,5.53
2022-09-25T09:23:22.442Z,6.10
2022-09-25T09:26:03.407Z,6.37
2022-09-25T09:28:51.810Z,6.03
2022-09-25T09:31:27.326Z,2.73
2022-09-25T09:34:24.084Z,7.63
2022-09-25T09:37:07.484Z,2.47
2022-09-25T09:39:45.369Z,5.47
2022-09-25T09:42:22.918Z,6.10
2022-09-25T09:45:09.305Z,6.87
2022-09-25T09:47:50.948Z,4.37
2022-09-25T09:50:42.870Z,3.43
2022-09-25T09:53:23.072Z,7.57
2022-09-25T09:55:52.391Z,7.47
2022-09-25T09:58:26.261Z,7.10
2022-09-25T10:00:52.774Z,6.07
2022-09-25T10:03:24.334Z,7.23
2022-09-25T10:06:01.880Z,8.93
2022-09-25T10:08:29.073Z,5.53
2022-09-25T10:10:55.940Z,4.93
2022-09-25T10:13:25.655Z,5.00
2022-09-25T10:16:01.302Z,5.20
2022-09-25T10:18:52.688Z,7.17
2022-09-25T10:21:22.304Z,5.53
2022-09-25T10:23:54.409Z,7.50
2022-09-25T10:26:31.931Z,3.83
2022-09-25T10:29:02.406Z,5.00
2022-09-25T10:31:38.308Z,7.03
2022-09-25T10:34:13.780Z,8.13
2022-09-25T10:36:43.343Z,8.43
2022-09-25T10:39:44.588Z,4.03
2022-09-25T10:42:39.228Z,6.67
2022-09-25T10:45:36.014Z,3.47
2022-09-25T10:48:42.276Z,7.37
2022-09-25T10:51:10.174Z,3.67
2022-09-25T10:53:37.146Z,2.60
2022-09-25T10:56:12.273Z,4.47
2022-09-25T10:58:45.317Z,6.23
2022-09-25T11:01:13.776Z,5.63
2022-09-25T11:03:51.257Z,4.27
2022-09-25T11:06:22.572Z,4.83
2022-09-25T11:09:14.145Z,4.57
2022-09-25T11:11:41.444Z,8.37
2022-09-25T11:14:19.266Z,5.57
2022-09-25T11:16:56.020Z,3.17
2022-09-25T11:19:34.206Z,2.93
2022-09-25T11:22:09.495Z,3.60
2022-09-25T11:24:48.158Z,2.43
2022-09-25T11:27:21.901Z,3.63
2022-09-25T11:29:57.946Z,7.00
2022-09-25T11:32:33.942Z,6.37
2022-09-25T11:35:12.658Z,5.27
2022-09-25T11:38:09.996Z,5.87
2022-09-25T11:41:11.184Z,1.90
2022-09-25T11:43:58.262Z,3.80
2022-09-25T11:46:33.728Z,4.43
2022-09-25T11:49:24.446Z,5.23
2022-09-25T11:52:16.319Z,5.30
2022-09-25T11:54:57.161Z,5.73
2022-09-25T11:57:42.380Z,2.30
2022-09-25T12:00:28.533Z,3.37
2022-09-25T12:03:26.840Z,4.00
2022-09-25T12:06:03.257Z,3.63
2022-09-25T12:08:58.395Z,6.73
2022-09-25T12:11:43.294Z,7.10
2022-09-25T12:14:21.773Z,4.40
2022-09-25T12:17:15.024Z,7.80
2022-09-25T12:19:55.631Z,1.50
2022-09-25T12:22:45.475Z,4.83
2022-09-25T12:25:34.785Z,4.70
2022-09-25T12:28:10.281Z,2.80
2022-09-25T12:30:50.319Z,2.50
2022-09-25T12:33:38.718Z,2.60
2022-09-25T12:36:15.054Z,3.17
2022-09-25T12:38:49.295Z,3.03
2022-09-25T12:41:30.048Z,4.40
2022-09-25T12:44:14.819Z,2.00
2022-09-25T12:46:47.095Z,2.53
2022-09-25T12:49:20.289Z,2.63
2022-09-25T12:51:52.345Z,2.33
2022-09-25T12:54:34.628Z,2.07
2022-09-25T12:57:21.831Z,1.60
2022-09-25T13:00:05.344Z,3.47
2022-09-25T13:02:41.090Z,1.73
2022-09-25T13:05:22.267Z,4.70
2022-09-25T13:08:25.351Z,4.53
2022-09-25T13:11:10.666Z,2.27
2022-09-25T13:13:45.233Z,5.63
2022-09-25T13:16:16.005Z,4.23
2022-09-25T13:19:05.776Z,2.07
2022-09-25T13:21:37.884Z,2.43
2022-09-25T13:24:08.585Z,6.60
2022-09-25T13:26:46.162Z,3.20
2022-09-25T13:29:27.909Z,7.27
2022-09-25T13:32:16.055Z,3.60
2022-09-25T13:34:42.962Z,2.23
2022-09-25T13:37:12.539Z,4.73
2022-09-25T13:40:05.194Z,1.30
2022-09-25T13:42:39.497Z,2.67
2022-09-25T13:45:30.112Z,4.50
2022-09-25T13:48:06.060Z,2.33
2022-09-25T13:50:47.151Z,3.80
2022-09-25T13:53:23.666Z,3.83
2022-09-25T13:55:49.989Z,2.90
2022-09-25T13:58:23.947Z,1.47
2022-09-25T14:00:55.534Z,5.20
2022-09-25T14:03:44.583Z,3.20
2022-09-25T14:06:19.868Z,4.40
2022-09-25T14:08:48.181Z,2.07
2022-09-25T14:11:19.861Z,4.13
2022-09-25T14:13:51.644Z,3.70
2022-09-25T14:16:43.700Z,3.73
2022-09-25T14:19:35.290Z,3.03
2022-09-25T14:22:04.850Z,5.03
2022-09-25T14:24:31.578Z,2.50
2022-09-25T14:27:01.178Z,1.60
2022-09-25T14:29:38.189Z,2.73
2022-09-25T14:32:54.598Z,2.70
2022-09-25T14:36:01.127Z,2.67
2022-09-25T14:38:54.509Z,2.93
2022-09-25T14:41:44.047Z,5.00
2022-09-25T14:44:49.235Z,4.93
2022-09-25T14:47:17.448Z,4.77
2022-09-25T14:49:48.812Z,1.10
2022-09-25T14:52:21.921Z,4.03
2022-09-25T14:54:51.330Z,1.83
2022-09-25T14:57:25.693Z,4.87
2022-09-25T14:59:56.235Z,3.00
2022-09-25T15:02:34.282Z,1.73
2022-09-25T15:05:28.904Z,2.97
2022-09-25T15:07:59.324Z,5.00
2022-09-25T15:10:38.281Z,3.00
2022-09-25T15:13:20.252Z,2.87
2022-09-25T15:16:12.877Z,2.60
2022-09-25T15:18:41.963Z,2.93
2022-09-25T15:21:23.227Z,3.13
2022-09-25T15:23:51.982Z,2.23
2022-09-25T15:26:18.630Z,3.47
2022-09-25T15:28:45.550Z,3.00
2022-09-25T15:31:12.069Z,2.77
2022-09-25T15:33:39.656Z,5.53
2022-09-25T15:36:17.303Z,1.87
2022-09-25T15:38:44.399Z,3.63
2022-09-25T15:41:17.431Z,5.30
2022-09-25T15:43:43.989Z,5.20
2022-09-25T15:46:10.529Z,3.77
2022-09-25T15:48:40.076Z,4.13
2022-09-25T15:51:35.963Z,2.03
2022-09-25T15:54:25.968Z,4.23
2022-09-25T15:56:55.206Z,3.93
2022-09-25T15:59:33.184Z,2.50
2022-09-25T16:02:28.045Z,2.10
2022-09-25T16:04:54.743Z,4.80
2022-09-25T16:07:32.139Z,4.83
2022-09-25T16:10:25.501Z,2.43
2022-09-25T16:12:51.850Z,3.03
2022-09-25T16:15:27.640Z,2.93
2022-09-25T16:18:05.842Z,4.67
2022-09-25T16:20:36.028Z,4.47
2022-09-25T16:23:20.333Z,6.33
2022-09-25T16:25:46.777Z,3.10
2022-09-25T16:28:20.530Z,2.20
2022-09-25T16:30:49.871Z,2.67
2022-09-25T16:33:23.764Z,1.07
2022-09-25T16:36:10.630Z,4.13
2022-09-25T16:38:41.318Z,3.53
2022-09-25T16:41:17.154Z,2.10
2022-09-25T16:43:43.538Z,3.37
2022-09-25T16:46:16.248Z,3.60
2022-09-25T16:48:44.596Z,2.63
2022-09-25T16:51:19.305Z,2.43
2022-09-25T16:53:46.425Z,3.23
2022-09-25T16:56:20.774Z,5.30
2022-09-25T16:58:47.335Z,2.13
2022-09-25T17:01:13.790Z,2.27
2022-09-25T17:03:52.822Z,3.80
2022-09-25T17:06:26.694Z,3.87
2022-09-25T17:08:53.532Z,5.17
2022-09-25T17:11:21.761Z,3.50
2022-09-25T17:13:48.916Z,2.50
2022-09-25T17:16:15.474Z,4.20
2022-09-25T17:18:42.564Z,3.27
2022-09-25T17:21:14.924Z,5.33
2022-09-25T17:23:43.519Z,3.77
2022-09-25T17:26:23.298Z,3.43
2022-09-25T17:28:51.210Z,3.93
2022-09-25T17:31:20.432Z,3.30
2022-09-25T17:33:49.809Z,2.47
2022-09-25T17:36:16.829Z,5.33
2022-09-25T17:38:44.311Z,3.70
2022-09-25T17:41:21.897Z,3.30
2022-09-25T17:43:49.264Z,4.47
2022-09-25T17:46:18.922Z,6.23
2022-09-25T17:48:47.897Z,4.37
2022-09-25T17:51:20.389Z,4.37
2022-09-25T17:53:49.091Z,3.77
2022-09-25T17:56:15.822Z,8.87
2022-09-25T17:58:45.341Z,6.47
2022-09-25T18:01:15.380Z,5.80
2022-09-25T18:03:41.750Z,3.07
2022-09-25T18:06:08.155Z,5.70
2022-09-25T18:08:34.640Z,6.00
2022-09-25T18:11:01.036Z,2.23
2022-09-25T18:16:02.027Z,2.57
2022-09-25T18:18:50.954Z,5.07
2022-09-25T18:21:36.800Z,3.37
2022-09-25T18:24:03.673Z,9.40
2022-09-25T18:26:31.571Z,6.17
2022-09-25T18:28:58.362Z,6.40
2022-09-25T18:31:25.364Z,6.87
2022-09-25T18:33:54.657Z,5.63
2022-09-25T18:36:22.158Z,3.53
2022-09-25T18:38:48.615Z,3.73
2022-09-25T18:41:15.087Z,4.17
2022-09-25T18:43:41.555Z,4.30
2022-09-25T18:46:08.097Z,5.60
2022-09-25T18:48:37.015Z,3.43
2022-09-25T18:51:03.718Z,5.03
2022-09-25T18:53:30.241Z,3.77
2022-09-25T18:55:59.508Z,5.10
2022-09-25T18:58:29.418Z,3.53
2022-09-25T19:00:56.185Z,10.23
2022-09-25T19:03:22.793Z,4.70
2022-09-25T19:06:02.874Z,6.27
2022-09-25T19:08:31.126Z,6.70
2022-09-25T19:11:00.400Z,3.47
2022-09-25T19:13:27.410Z,4.10
2022-09-25T19:15:55.588Z,4.00
2022-09-25T19:18:22.242Z,4.83
2022-09-25T19:20:54.242Z,3.80
2022-09-25T19:23:22.155Z,6.57
2022-09-25T19:25:53.317Z,6.27
2022-09-25T19:28:19.724Z,6.23
2022-09-25T19:31:15.251Z,4.00
2022-09-25T19:33:41.944Z,4.67
2022-09-25T19:36:19.067Z,7.40
2022-09-25T19:38:46.653Z,6.47
2022-09-25T19:41:26.214Z,7.03
2022-09-25T19:43:54.675Z,5.60
2022-09-25T19:46:21.152Z,6.03
2022-09-25T19:48:48.575Z,5.90
2022-09-25T19:51:17.135Z,3.03
2022-09-25T19:53:44.436Z,3.23
2022-09-25T19:56:11.897Z,4.87
2022-09-25T19:58:38.818Z,4.87
2022-09-25T20:01:13.519Z,8.47
2022-09-25T20:03:41.212Z,6.40
2022-09-25T20:06:09.455Z,6.37
2022-09-25T20:08:36.902Z,7.20
2022-09-25T20:11:19.609Z,4.37
2022-09-25T20:13:47.359Z,6.67
2022-09-25T20:16:17.212Z,5.83
2022-09-25T20:18:48.061Z,5.57
2022-09-25T20:21:17.347Z,4.13
2022-09-25T20:23:43.854Z,7.13
2022-09-25T20:26:12.918Z,6.73
2022-09-25T20:28:40.773Z,7.60
2022-09-25T20:31:08.973Z,4.90
2022-09-25T20:33:36.078Z,8.33
2022-09-25T20:36:04.615Z,4.63
2022-09-25T20:38:32.653Z,7.90
2022-09-25T20:41:04.369Z,9.73
2022-09-25T20:43:30.743Z,6.43
2022-09-25T20:46:05.368Z,6.73
2022-09-25T20:48:32.288Z,5.43
2022-09-25T20:50:58.668Z,11.33
2022-09-25T20:53:25.667Z,5.77
2022-09-25T20:55:52.044Z,5.47
2022-09-25T20:58:18.799Z,4.30
2022-09-25T21:00:45.918Z,4.53
2022-09-25T21:03:12.839Z,6.90
2022-09-25T21:05:40.871Z,8.80
2022-09-25T21:08:07.445Z,8.33
2022-09-25T21:10:37.258Z,7.27
2022-09-25T21:13:06.330Z,6.13
2022-09-25T21:15:33.102Z,8.50
2022-09-25T21:17:59.962Z,7.93
2022-09-25T21:20:26.777Z,6.23
2022-09-25T21:22:54.551Z,8.43
2022-09-25T21:25:21.381Z,7.83
2022-09-25T21:27:47.870Z,6.53
2022-09-25T21:30:14.243Z,7.43
2022-09-25T21:32:40.887Z,4.47
2022-09-25T21:35:07.560Z,7.43
2022-09-25T21:37:34.347Z,6.37
2022-09-25T21:40:00.852Z,5.13
2022-09-25T21:42:29.599Z,10.30
2022-09-25T21:44:57.557Z,8.43
2022-09-25T21:47:23.870Z,6.40
2022-09-25T21:49:50.786Z,4.87
2022-09-25T21:52:17.125Z,5.50
2022-09-25T21:54:43.581Z,6.97
2022-09-25T21:57:10.025Z,5.77
2022-09-25T21:59:36.355Z,5.03
2022-09-25T22:02:02.694Z,3.57
2022-09-25T22:04:29.041Z,7.13
2022-09-25T22:06:57.609Z,9.30
2022-09-25T22:09:24.845Z,5.73
2022-09-25T22:11:51.449Z,7.17
2022-09-25T22:14:19.454Z,4.73
2022-09-25T22:16:49.675Z,5.83
2022-09-25T22:19:20.956Z,4.53
2022-09-25T22:21:49.441Z,7.87
2022-09-25T22:24:16.428Z,4.47
2022-09-25T22:26:44.723Z,6.27
2022-09-25T22:29:11.583Z,5.63
2022-09-25T22:31:38.509Z,5.23
2022-09-25T22:34:08.420Z,5.30
2022-09-25T22:36:36.260Z,6.97
2022-09-25T22:39:04.427Z,4.60
2022-09-25T22:41:31.554Z,2.80
2022-09-25T22:44:00.637Z,3.43
2022-09-25T22:46:27.623Z,4.63
2022-09-25T22:48:53.995Z,4.17
2022-09-25T22:51:22.707Z,2.87
2022-09-25T22:53:49.730Z,4.27
2022-09-25T22:56:24.959Z,8.63
2022-09-25T22:58:57.293Z,4.20
2022-09-25T23:01:36.868Z,4.10
2022-09-25T23:04:06.368Z,5.03
2022-09-25T23:06:34.399Z,6.20
2022-09-25T23:09:03.558Z,6.33
2022-09-25T23:11:30.905Z,7.03
2022-09-25T23:14:09.809Z,5.03
2022-09-25T23:16:36.922Z,4.47
2022-09-25T23:19:03.782Z,7.00
2022-09-25T23:21:31.383Z,3.57
2022-09-25T23:24:00.011Z,7.50
2022-09-25T23:26:27.347Z,5.77
2022-09-25T23:28:54.233Z,7.90
2022-09-25T23:31:21.313Z,8.07
2022-09-25T23:33:48.155Z,4.17
2022-09-25T23:36:23.066Z,3.17
2022-09-25T23:38:51.351Z,6.23
2022-09-25T23:41:24.131Z,5.27
2022-09-25T23:43:51.848Z,3.57
2022-09-25T23:46:22.038Z,3.63
2022-09-25T23:48:49.471Z,5.77
2022-09-25T23:51:17.135Z,4.40
2022-09-25T23:53:44.325Z,4.20
2022-09-25T23:56:13.421Z,5.30
2022-09-25T23:58:40.502Z,3.23
